La Loma, New Mexico
Current Conditions -  °F | °C
As of 2:53 AM on Friday 24 Oct 2014 (Local Time) from KLVS Reporting Station
Clear Clear  
Wind Chill: 41°   Ceiling: Unl
Heat Index: 45°   Visibility: 10mi
Dew Point: 28°   Wind: 7mph
Humidity: 52%   Direction: 20°NNE
Pressure: 30.3"   Gusts: NA
Location:  35.19°N, 105.06°W
Report Text: KLVS 240853Z AUTO 02006KT 10SM CLR 07/M02 A3030 RMK AO2 SLP178 T00721022 50000
Loading
Personal Weather Stations






























Interactive Weather Map
Tropical Storm Tracking
New forecast layout! Learn more

10-Day Weather Forecast

Advertisements
Track Severe Weather on mobile